createdAt,value
2018-01-26T00:01:01.648Z,30.33
2018-01-26T00:03:29.228Z,29.90
2018-01-26T00:05:57.578Z,30.73
2018-01-26T00:08:25.122Z,29.87
2018-01-26T00:10:52.687Z,30.20
2018-01-26T00:13:21.954Z,30.63
2018-01-26T00:15:49.497Z,31.10
2018-01-26T00:18:17.047Z,29.07
2018-01-26T00:20:44.683Z,32.70
2018-01-26T00:23:12.226Z,30.20
2018-01-26T00:25:39.753Z,31.40
2018-01-26T00:28:07.353Z,30.97
2018-01-26T00:30:35.031Z,33.23
2018-01-26T00:33:02.623Z,31.13
2018-01-26T00:35:30.180Z,31.50
2018-01-26T00:37:57.759Z,31.50
2018-01-26T00:40:25.338Z,32.33
2018-01-26T00:42:53.188Z,29.03
2018-01-26T00:45:20.767Z,28.03
2018-01-26T00:47:49.898Z,30.83
2018-01-26T00:50:19.803Z,31.87
2018-01-26T00:52:47.364Z,31.90
2018-01-26T00:55:15.802Z,31.33
2018-01-26T00:57:43.381Z,32.43
2018-01-26T01:00:10.912Z,30.30
2018-01-26T01:02:38.478Z,32.20
2018-01-26T01:05:06.152Z,31.87
2018-01-26T01:07:34.135Z,30.80
2018-01-26T01:10:01.666Z,32.23
2018-01-26T01:12:29.803Z,32.10
2018-01-26T01:14:58.132Z,31.17
2018-01-26T01:17:25.659Z,31.00
2018-01-26T01:19:53.236Z,32.03
2018-01-26T01:22:21.675Z,31.90
2018-01-26T01:24:49.270Z,32.33
2018-01-26T01:27:16.806Z,28.93
2018-01-26T01:29:45.034Z,30.50
2018-01-26T01:32:12.634Z,32.00
2018-01-26T01:34:40.163Z,31.23
2018-01-26T01:37:07.726Z,32.77
2018-01-26T01:39:35.310Z,33.47
2018-01-26T01:42:03.627Z,30.20
2018-01-26T01:44:31.160Z,31.40
2018-01-26T01:46:58.747Z,31.97
2018-01-26T01:49:27.144Z,31.57
2018-01-26T01:51:54.733Z,31.20
2018-01-26T01:54:23.166Z,32.20
2018-01-26T01:56:50.694Z,33.27
2018-01-26T01:59:19.047Z,30.33
2018-01-26T02:01:47.424Z,31.73
2018-01-26T02:04:15.722Z,30.70
2018-01-26T02:06:43.902Z,33.50
2018-01-26T02:09:13.211Z,31.63
2018-01-26T02:11:40.781Z,31.77
2018-01-26T02:14:08.322Z,31.90
2018-01-26T02:16:36.230Z,33.57
2018-01-26T02:19:04.288Z,32.90
2018-01-26T02:21:33.528Z,32.43
2018-01-26T02:24:01.452Z,31.87
2018-01-26T02:26:28.977Z,33.27
2018-01-26T02:28:56.548Z,30.33
2018-01-26T02:31:24.893Z,31.50
2018-01-26T02:33:52.480Z,32.13
2018-01-26T02:36:20.063Z,32.83
2018-01-26T02:38:47.604Z,35.17
2018-01-26T02:41:15.629Z,35.37
2018-01-26T02:43:43.178Z,32.80
2018-01-26T02:46:10.731Z,33.47
2018-01-26T02:48:38.288Z,32.83
2018-01-26T02:51:05.798Z,34.80
2018-01-26T02:53:33.358Z,34.30
2018-01-26T02:56:00.909Z,34.33
2018-01-26T02:58:28.497Z,33.20
2018-01-26T03:00:56.025Z,33.73
2018-01-26T03:03:23.643Z,36.33
2018-01-26T03:05:51.776Z,36.53
2018-01-26T03:08:20.308Z,35.47
2018-01-26T03:10:47.931Z,33.97
2018-01-26T03:13:17.973Z,33.77
2018-01-26T03:15:45.521Z,35.57
2018-01-26T03:18:13.847Z,33.37
2018-01-26T03:20:41.893Z,32.87
2018-01-26T03:23:09.428Z,34.10
2018-01-26T03:25:38.363Z,37.03
2018-01-26T03:28:06.531Z,34.57
2018-01-26T03:30:34.120Z,34.30
2018-01-26T03:33:02.401Z,35.17
2018-01-26T03:35:30.715Z,36.43
2018-01-26T03:37:58.741Z,35.07
2018-01-26T03:40:26.320Z,36.27
2018-01-26T03:42:54.639Z,35.93
2018-01-26T03:45:22.162Z,35.27
2018-01-26T03:47:50.992Z,35.37
2018-01-26T03:50:18.582Z,37.67
2018-01-26T03:52:46.108Z,35.80
2018-01-26T03:55:13.712Z,35.80
2018-01-26T03:57:41.273Z,35.50
2018-01-26T04:00:08.975Z,36.17
2018-01-26T04:02:36.519Z,36.87
2018-01-26T04:05:04.992Z,37.37
2018-01-26T04:07:32.538Z,37.60
2018-01-26T04:10:00.087Z,35.00
2018-01-26T04:12:27.662Z,34.70
2018-01-26T04:14:55.204Z,35.50
2018-01-26T04:17:22.743Z,34.60
2018-01-26T04:19:50.327Z,37.00
2018-01-26T04:22:18.196Z,38.60
2018-01-26T04:24:47.287Z,36.40
2018-01-26T04:27:16.379Z,37.50
2018-01-26T04:29:43.975Z,35.80
2018-01-26T04:32:12.253Z,36.33
2018-01-26T04:34:40.539Z,36.40
2018-01-26T04:37:08.460Z,36.40
2018-01-26T04:39:36.052Z,37.10
2018-01-26T04:42:04.403Z,37.13
2018-01-26T04:44:31.979Z,38.67
2018-01-26T04:46:59.524Z,36.20
2018-01-26T04:49:27.103Z,39.10
2018-01-26T04:51:54.643Z,38.03
2018-01-26T04:54:22.214Z,38.60
2018-01-26T04:56:49.773Z,37.93
2018-01-26T04:59:17.839Z,37.37
2018-01-26T05:01:47.500Z,39.43
2018-01-26T05:04:15.794Z,38.80
2018-01-26T05:06:43.385Z,37.43
2018-01-26T05:09:12.348Z,37.90
2018-01-26T05:11:39.905Z,38.67
2018-01-26T05:14:07.486Z,38.80
2018-01-26T05:16:35.031Z,39.03
2018-01-26T05:19:02.659Z,38.33
2018-01-26T05:21:30.200Z,39.63
2018-01-26T05:23:58.516Z,39.63
2018-01-26T05:26:26.072Z,41.30
2018-01-26T05:28:53.609Z,39.17
2018-01-26T05:31:21.126Z,42.20
2018-01-26T05:33:48.732Z,40.07
2018-01-26T05:36:16.323Z,39.30
2018-01-26T05:38:43.882Z,42.37
2018-01-26T05:41:11.418Z,39.83
2018-01-26T05:43:38.984Z,42.10
2018-01-26T05:46:08.002Z,41.77
2018-01-26T05:48:35.582Z,43.00
2018-01-26T05:51:03.163Z,43.77
2018-01-26T05:53:30.772Z,44.13
2018-01-26T05:55:58.319Z,40.20
2018-01-26T05:58:25.939Z,41.33
2018-01-26T06:00:53.537Z,42.73
2018-01-26T06:03:21.560Z,43.43
2018-01-26T06:05:49.176Z,41.13
2018-01-26T06:08:16.779Z,42.60
2018-01-26T06:10:44.613Z,43.30
2018-01-26T06:13:12.155Z,43.10
2018-01-26T06:15:39.710Z,42.13
2018-01-26T06:18:08.115Z,43.77
2018-01-26T06:20:36.264Z,42.20
2018-01-26T06:23:04.918Z,40.83
2018-01-26T06:25:32.523Z,42.00
2018-01-26T06:28:00.593Z,41.53
2018-01-26T06:30:28.330Z,45.13
2018-01-26T06:32:55.877Z,44.80
2018-01-26T06:35:24.223Z,41.20
2018-01-26T06:37:52.533Z,43.50
2018-01-26T06:40:20.091Z,40.13
2018-01-26T06:42:48.389Z,43.97
2018-01-26T06:45:16.934Z,42.57
2018-01-26T06:47:44.501Z,43.10
2018-01-26T06:50:12.062Z,43.80
2018-01-26T06:52:39.638Z,42.10
2018-01-26T06:55:08.585Z,42.23
2018-01-26T06:57:36.176Z,42.20
2018-01-26T07:00:03.916Z,44.07
2018-01-26T07:02:31.478Z,42.83
2018-01-26T07:04:59.100Z,43.20
2018-01-26T07:07:27.492Z,44.07
2018-01-26T07:09:56.179Z,42.00
2018-01-26T07:12:24.575Z,45.13
2018-01-26T07:14:52.103Z,44.67
2018-01-26T07:17:19.686Z,41.87
2018-01-26T07:19:47.270Z,44.40
2018-01-26T07:22:14.830Z,44.20
2018-01-26T07:24:42.501Z,43.33
2018-01-26T07:27:10.115Z,44.10
2018-01-26T07:29:38.001Z,40.97
2018-01-26T07:32:06.618Z,43.67
2018-01-26T07:34:34.187Z,43.23
2018-01-26T07:37:01.759Z,42.60
2018-01-26T07:39:29.324Z,44.67
2018-01-26T07:41:56.892Z,44.63
2018-01-26T07:44:24.427Z,45.77
2018-01-26T07:46:52.308Z,43.57
2018-01-26T07:49:20.674Z,44.43
2018-01-26T07:51:48.221Z,43.03
2018-01-26T07:54:15.858Z,43.30
2018-01-26T07:56:43.383Z,42.50
2018-01-26T07:59:10.975Z,45.53
2018-01-26T08:01:38.617Z,41.67
2018-01-26T08:04:06.179Z,45.80
2018-01-26T08:06:33.784Z,44.23
2018-01-26T08:09:01.514Z,48.00
2018-01-26T08:11:30.244Z,42.03
2018-01-26T08:13:57.942Z,45.97
2018-01-26T08:16:25.587Z,46.43
2018-01-26T08:18:53.154Z,44.90
2018-01-26T08:21:20.734Z,45.80
2018-01-26T08:23:48.318Z,47.40
2018-01-26T08:26:16.055Z,46.30
2018-01-26T08:28:44.360Z,44.13
2018-01-26T08:31:12.045Z,46.03
2018-01-26T08:33:39.605Z,47.77
2018-01-26T08:36:07.236Z,48.30
2018-01-26T08:38:34.801Z,48.47
2018-01-26T08:41:02.331Z,50.60
2018-01-26T08:43:30.709Z,45.97
2018-01-26T08:45:59.840Z,50.37
2018-01-26T08:48:27.460Z,52.33
2018-01-26T08:50:55.060Z,51.17
2018-01-26T08:53:22.599Z,52.57
2018-01-26T08:55:50.182Z,52.63
2018-01-26T08:58:17.837Z,53.93
2018-01-26T09:00:45.434Z,82.80
2018-01-26T09:03:13.045Z,66.97
2018-01-26T09:05:40.838Z,60.53
2018-01-26T09:08:08.517Z,52.30
2018-01-26T09:10:36.111Z,52.00
2018-01-26T09:13:04.464Z,49.37
2018-01-26T09:15:32.122Z,49.10
2018-01-26T09:17:59.687Z,49.57
2018-01-26T09:20:27.289Z,49.50
2018-01-26T09:22:54.896Z,49.63
2018-01-26T09:25:22.495Z,48.10
2018-01-26T09:27:50.977Z,51.07
2018-01-26T09:30:18.554Z,52.07
2018-01-26T09:32:46.259Z,49.40
2018-01-26T09:35:13.780Z,48.70
2018-01-26T09:37:41.331Z,49.70
2018-01-26T09:40:09.695Z,47.50
2018-01-26T09:42:38.020Z,46.97
2018-01-26T09:45:06.463Z,49.90
2018-01-26T09:47:34.026Z,49.17
2018-01-26T09:50:02.493Z,47.70
2018-01-26T09:52:30.875Z,48.67
2018-01-26T09:54:58.781Z,44.80
2018-01-26T09:57:26.753Z,46.50
2018-01-26T09:59:54.485Z,44.87
2018-01-26T10:02:22.821Z,45.07
2018-01-26T10:04:50.434Z,45.70
2018-01-26T10:07:18.064Z,45.07
2018-01-26T10:09:45.713Z,44.83
2018-01-26T10:12:13.264Z,45.07
2018-01-26T10:14:40.855Z,43.80
2018-01-26T10:17:09.222Z,44.30
2018-01-26T10:19:36.829Z,44.60
2018-01-26T10:22:04.449Z,45.07
2018-01-26T10:24:32.031Z,44.90
2018-01-26T10:26:59.633Z,44.00
2018-01-26T10:29:27.247Z,46.57
2018-01-26T10:31:54.864Z,47.30
2018-01-26T10:34:22.444Z,44.27
2018-01-26T10:36:50.149Z,50.00
2018-01-26T10:39:17.735Z,45.47
2018-01-26T10:41:45.299Z,45.83
2018-01-26T10:44:12.888Z,46.20
2018-01-26T10:46:41.215Z,46.87
2018-01-26T10:49:08.815Z,44.73
2018-01-26T10:51:36.457Z,46.60
2018-01-26T10:54:04.011Z,48.30
2018-01-26T10:56:31.611Z,52.03
2018-01-26T10:58:59.335Z,49.07
2018-01-26T11:01:27.260Z,46.70
2018-01-26T11:03:55.708Z,45.50
2018-01-26T11:06:23.282Z,46.97
2018-01-26T11:08:50.901Z,47.17
2018-01-26T11:11:18.561Z,46.70
2018-01-26T11:13:46.147Z,46.40
2018-01-26T11:16:14.511Z,46.83
2018-01-26T11:18:42.103Z,47.27
2018-01-26T11:21:09.669Z,46.43
2018-01-26T11:23:37.342Z,48.53
2018-01-26T11:26:05.797Z,49.17
2018-01-26T11:28:33.396Z,49.43
2018-01-26T11:31:01.578Z,52.30
2018-01-26T11:33:29.119Z,51.63
2018-01-26T11:35:57.462Z,49.73
2018-01-26T11:38:25.813Z,47.70
2018-01-26T11:40:53.447Z,50.23
2018-01-26T11:43:21.030Z,49.27
2018-01-26T11:45:48.682Z,50.00
2018-01-26T11:48:16.299Z,50.40
2018-01-26T11:50:43.883Z,48.73
2018-01-26T11:53:11.447Z,50.70
2018-01-26T11:55:39.783Z,48.37
2018-01-26T11:58:07.407Z,46.00
2018-01-26T12:00:35.746Z,46.47
2018-01-26T12:03:04.907Z,47.17
2018-01-26T12:05:32.474Z,42.97
2018-01-26T12:08:00.056Z,45.90
2018-01-26T12:10:27.690Z,44.97
2018-01-26T12:12:55.253Z,40.07
2018-01-26T12:15:22.899Z,38.27
2018-01-26T12:17:50.434Z,43.10
2018-01-26T12:20:18.773Z,43.53
2018-01-26T12:22:46.355Z,43.40
2018-01-26T12:25:14.759Z,42.53
2018-01-26T12:27:42.348Z,42.10
2018-01-26T12:30:09.893Z,43.60
2018-01-26T12:32:37.492Z,44.20
2018-01-26T12:35:05.163Z,40.20
2018-01-26T12:37:32.814Z,42.60
2018-01-26T12:40:00.362Z,37.73
2018-01-26T12:42:27.925Z,37.80
2018-01-26T12:44:55.501Z,37.10
2018-01-26T12:47:23.123Z,36.90
2018-01-26T12:49:50.761Z,35.60
2018-01-26T12:52:18.318Z,36.37
2018-01-26T12:54:45.924Z,36.27
2018-01-26T12:57:13.458Z,40.30
2018-01-26T12:59:41.008Z,38.17
2018-01-26T13:02:08.573Z,38.53
2018-01-26T13:04:36.597Z,36.90
2018-01-26T13:07:04.233Z,38.97
2018-01-26T13:09:31.855Z,38.90
2018-01-26T13:11:59.400Z,43.47
2018-01-26T13:14:27.692Z,39.73
2018-01-26T13:16:55.307Z,40.40
2018-01-26T13:19:22.900Z,42.20
2018-01-26T13:21:50.508Z,40.57
2018-01-26T13:24:18.126Z,41.77
2018-01-26T13:26:45.677Z,43.17
2018-01-26T13:29:14.053Z,43.10
2018-01-26T13:31:42.444Z,43.80
2018-01-26T13:34:10.400Z,42.50
2018-01-26T13:36:38.811Z,42.67
2018-01-26T13:39:06.382Z,43.07
2018-01-26T13:41:33.960Z,43.07
2018-01-26T13:44:01.535Z,43.80
2018-01-26T13:46:29.121Z,43.27
2018-01-26T13:48:58.498Z,43.77
2018-01-26T13:51:26.092Z,43.70
2018-01-26T13:53:53.693Z,42.40
2018-01-26T13:56:21.630Z,45.60
2018-01-26T13:58:50.337Z,45.00
2018-01-26T14:01:17.929Z,45.67
2018-01-26T14:03:45.484Z,45.40
2018-01-26T14:06:13.081Z,42.73
2018-01-26T14:08:40.682Z,41.90
2018-01-26T14:11:08.317Z,43.73
2018-01-26T14:13:35.871Z,40.67
2018-01-26T14:16:03.468Z,38.10
2018-01-26T14:18:31.103Z,39.13
2018-01-26T14:20:59.599Z,38.07
2018-01-26T14:23:27.175Z,38.63
2018-01-26T14:25:55.364Z,37.80
2018-01-26T14:28:23.692Z,37.50
2018-01-26T14:30:52.645Z,36.00
2018-01-26T14:33:20.342Z,36.50
2018-01-26T14:35:49.560Z,39.30
2018-01-26T14:38:17.237Z,34.83
2018-01-26T14:40:44.887Z,37.67
2018-01-26T14:43:13.391Z,37.73
2018-01-26T14:45:41.788Z,39.03
2018-01-26T14:48:10.083Z,37.20
2018-01-26T14:50:37.733Z,39.50
2018-01-26T14:53:05.288Z,40.97
2018-01-26T14:55:33.701Z,38.50
2018-01-26T14:58:02.049Z,41.50
2018-01-26T15:00:29.727Z,38.40
2018-01-26T15:02:58.748Z,38.30
2018-01-26T15:05:26.340Z,35.97
2018-01-26T15:07:53.877Z,36.90
2018-01-26T15:10:21.614Z,38.20
2018-01-26T15:12:49.428Z,37.07
2018-01-26T15:15:16.974Z,35.47
2018-01-26T15:17:44.577Z,38.07
2018-01-26T15:20:12.944Z,35.10
2018-01-26T15:22:40.654Z,44.00
2018-01-26T15:25:08.466Z,44.43
2018-01-26T15:27:36.017Z,40.50
2018-01-26T15:30:03.655Z,38.20
2018-01-26T15:32:31.214Z,38.73
2018-01-26T15:34:58.775Z,39.70
2018-01-26T15:37:26.414Z,39.40
2018-01-26T15:39:54.056Z,39.40
2018-01-26T15:42:22.992Z,40.20
2018-01-26T15:44:50.798Z,43.50
2018-01-26T15:47:18.371Z,44.70
2018-01-26T15:49:45.918Z,41.80
2018-01-26T15:52:13.595Z,40.33
2018-01-26T15:54:41.163Z,40.37
2018-01-26T15:57:08.764Z,40.97
2018-01-26T15:59:36.369Z,40.60
2018-01-26T16:02:03.942Z,38.73
2018-01-26T16:04:31.485Z,43.10
2018-01-26T16:06:59.102Z,42.97
2018-01-26T16:09:34.839Z,42.20
2018-01-26T16:12:04.201Z,43.80
2018-01-26T16:14:31.761Z,40.07
2018-01-26T16:16:59.332Z,41.50
2018-01-26T16:19:26.947Z,42.60
2018-01-26T16:21:54.498Z,42.60
2018-01-26T16:24:22.064Z,43.43
2018-01-26T16:26:50.190Z,41.70
2018-01-26T16:29:17.737Z,41.67
2018-01-26T16:31:45.317Z,42.47
2018-01-26T16:34:13.441Z,42.77
2018-01-26T16:36:41.277Z,42.93
2018-01-26T16:39:08.885Z,40.10
2018-01-26T16:41:37.075Z,43.17
2018-01-26T16:44:04.941Z,43.13
2018-01-26T16:46:33.996Z,42.83
2018-01-26T16:49:01.939Z,43.20
2018-01-26T16:51:30.314Z,44.53
2018-01-26T16:56:32.938Z,45.80
2018-01-26T16:59:01.362Z,42.87
2018-01-26T17:01:29.103Z,44.10
2018-01-26T17:03:57.562Z,42.43
2018-01-26T17:06:26.137Z,43.60
2018-01-26T17:08:53.650Z,45.97
2018-01-26T17:11:21.206Z,44.23
2018-01-26T17:13:49.554Z,44.67
2018-01-26T17:16:17.097Z,44.67
2018-01-26T17:18:45.935Z,48.87
2018-01-26T17:21:13.523Z,47.10
2018-01-26T17:23:41.910Z,47.93
2018-01-26T17:26:10.784Z,47.50
2018-01-26T17:28:38.440Z,46.40
2018-01-26T17:31:05.967Z,46.57
2018-01-26T17:33:34.755Z,46.77
2018-01-26T17:36:02.347Z,48.00
2018-01-26T17:38:30.742Z,48.23
2018-01-26T17:40:59.059Z,49.40
2018-01-26T17:43:27.532Z,49.53
2018-01-26T17:45:55.122Z,46.60
2018-01-26T17:48:24.146Z,47.20
2018-01-26T17:50:52.545Z,46.20
2018-01-26T17:53:20.890Z,46.67
2018-01-26T17:55:50.415Z,44.33
2018-01-26T17:58:20.060Z,46.10
2018-01-26T18:00:49.037Z,45.40
2018-01-26T18:03:18.167Z,44.10
2018-01-26T18:05:48.294Z,44.30
2018-01-26T18:08:16.733Z,43.77
2018-01-26T18:10:45.145Z,42.37
2018-01-26T18:13:12.799Z,44.20
2018-01-26T18:15:40.605Z,43.07
2018-01-26T18:18:08.686Z,43.47
2018-01-26T18:20:37.473Z,43.13
2018-01-26T18:23:05.012Z,41.40
2018-01-26T18:25:32.709Z,42.80
2018-01-26T18:28:01.022Z,40.73
2018-01-26T18:30:28.592Z,42.60
2018-01-26T18:32:56.174Z,40.90
2018-01-26T18:35:23.722Z,38.87
2018-01-26T18:37:52.076Z,39.33
2018-01-26T18:40:20.514Z,40.10
2018-01-26T18:42:48.266Z,40.50
2018-01-26T18:45:16.523Z,40.13
2018-01-26T18:47:44.070Z,44.57
2018-01-26T18:50:12.401Z,44.23
2018-01-26T18:52:40.704Z,39.70
2018-01-26T18:55:08.300Z,42.50
2018-01-26T18:57:35.872Z,42.00
2018-01-26T19:00:04.252Z,42.30
2018-01-26T19:02:32.786Z,43.80
2018-01-26T19:05:00.345Z,43.63
2018-01-26T19:07:29.096Z,43.80
2018-01-26T19:09:58.564Z,45.23
2018-01-26T19:12:26.132Z,45.47
2018-01-26T19:14:53.699Z,45.40
2018-01-26T19:17:22.002Z,45.20
2018-01-26T19:19:49.901Z,46.37
2018-01-26T19:22:18.077Z,44.90
2018-01-26T19:24:46.978Z,42.77
2018-01-26T19:27:15.250Z,42.87
2018-01-26T19:29:42.857Z,43.80
2018-01-26T19:32:11.329Z,45.07
2018-01-26T19:34:38.892Z,45.70
2018-01-26T19:37:06.649Z,45.77
2018-01-26T19:39:34.271Z,43.90
2018-01-26T19:42:02.138Z,45.57
2018-01-26T19:44:29.743Z,44.50
2018-01-26T19:46:57.704Z,43.20
2018-01-26T19:49:26.094Z,43.10
2018-01-26T19:51:53.619Z,41.70
2018-01-26T19:54:22.934Z,43.20
2018-01-26T19:56:50.498Z,42.90
2018-01-26T19:59:18.311Z,42.60
2018-01-26T20:01:45.966Z,43.80
2018-01-26T20:04:20.495Z,42.07
2018-01-26T20:07:05.576Z,40.80
2018-01-26T20:09:33.196Z,39.30
2018-01-26T20:12:06.470Z,40.73
2018-01-26T20:14:34.232Z,40.87
2018-01-26T20:17:01.801Z,41.53
2018-01-26T20:19:29.405Z,41.47
2018-01-26T20:21:57.279Z,44.00
2018-01-26T20:24:24.876Z,43.73
2018-01-26T20:26:52.455Z,41.90
2018-01-26T20:29:20.309Z,43.90
2018-01-26T20:31:47.953Z,50.17
2018-01-26T20:34:16.498Z,51.17
2018-01-26T20:36:44.344Z,50.60
2018-01-26T20:39:12.405Z,51.63
2018-01-26T20:41:40.873Z,51.97
2018-01-26T20:44:08.486Z,56.03
2018-01-26T20:46:36.825Z,56.70
2018-01-26T20:49:04.443Z,55.83
2018-01-26T20:51:32.572Z,58.33
2018-01-26T20:54:00.440Z,56.23
2018-01-26T20:56:28.027Z,57.67
2018-01-26T20:58:56.550Z,58.53
2018-01-26T21:01:24.108Z,62.60
2018-01-26T21:03:53.067Z,59.80
2018-01-26T21:06:20.911Z,60.10
2018-01-26T21:08:48.744Z,56.47
2018-01-26T21:11:16.578Z,62.50
2018-01-26T21:13:44.169Z,60.57
2018-01-26T21:16:11.699Z,59.70
2018-01-26T21:18:39.649Z,62.10
2018-01-26T21:21:07.924Z,62.17
2018-01-26T21:23:36.249Z,59.37
2018-01-26T21:26:03.818Z,63.70
2018-01-26T21:28:31.382Z,59.50
2018-01-26T21:30:59.050Z,62.70
2018-01-26T21:33:26.626Z,60.03
2018-01-26T21:35:54.168Z,64.10
2018-01-26T21:38:21.759Z,60.63
2018-01-26T21:40:50.360Z,60.43
2018-01-26T21:43:17.925Z,65.60
2018-01-26T21:45:45.513Z,59.27
2018-01-26T21:48:13.122Z,62.87
2018-01-26T21:50:40.718Z,62.07
2018-01-26T21:53:08.274Z,63.40
2018-01-26T21:55:35.819Z,61.63
2018-01-26T21:58:04.232Z,62.47
2018-01-26T22:00:31.917Z,61.57
2018-01-26T22:02:59.557Z,62.00
2018-01-26T22:05:27.181Z,62.40
2018-01-26T22:07:56.211Z,63.00
2018-01-26T22:10:23.836Z,61.13
2018-01-26T22:12:51.400Z,59.83
2018-01-26T22:15:19.036Z,63.80
2018-01-26T22:17:46.636Z,61.40
2018-01-26T22:20:14.229Z,60.10
2018-01-26T22:22:41.799Z,61.67
2018-01-26T22:25:09.403Z,59.70
2018-01-26T22:27:37.778Z,62.63
2018-01-26T22:30:06.287Z,58.93
2018-01-26T22:32:33.862Z,57.90
2018-01-26T22:35:01.473Z,60.40
2018-01-26T22:37:29.883Z,63.37
2018-01-26T22:39:57.564Z,59.13
2018-01-26T22:42:25.105Z,60.70
2018-01-26T22:44:52.623Z,58.43
2018-01-26T22:47:20.179Z,60.30
2018-01-26T22:49:47.713Z,60.40
2018-01-26T22:52:15.281Z,59.23
2018-01-26T22:54:42.922Z,65.27
2018-01-26T22:57:10.492Z,59.93
2018-01-26T22:59:38.090Z,59.50
2018-01-26T23:02:06.434Z,61.57
2018-01-26T23:04:34.037Z,59.40
2018-01-26T23:07:02.354Z,60.83
2018-01-26T23:09:29.917Z,58.13
2018-01-26T23:11:57.487Z,58.93
2018-01-26T23:14:25.067Z,60.20
2018-01-26T23:16:52.708Z,61.73
2018-01-26T23:19:20.314Z,57.83
2018-01-26T23:21:47.942Z,57.17
2018-01-26T23:24:15.517Z,57.97
2018-01-26T23:26:43.094Z,58.50
2018-01-26T23:29:10.696Z,58.80
2018-01-26T23:31:38.273Z,59.57
2018-01-26T23:34:05.840Z,57.80
2018-01-26T23:36:33.384Z,57.90
2018-01-26T23:39:00.931Z,58.60
2018-01-26T23:41:28.666Z,60.33
2018-01-26T23:43:56.958Z,58.70
2018-01-26T23:46:24.525Z,59.10
2018-01-26T23:48:52.105Z,56.83
2018-01-26T23:51:19.674Z,57.73
2018-01-26T23:53:47.212Z,58.23
2018-01-26T23:56:15.707Z,58.43
2018-01-26T23:58:43.225Z,56.47
